createdAt,value
2018-01-30T00:00:18.038Z,14.30
2018-01-30T00:01:18.054Z,23.80
2018-01-30T00:02:18.071Z,13.50
2018-01-30T00:03:18.088Z,12.90
2018-01-30T00:04:18.105Z,16.30
2018-01-30T00:05:18.121Z,15.10
2018-01-30T00:06:18.138Z,14.80
2018-01-30T00:07:18.155Z,12.90
2018-01-30T00:08:18.172Z,15.90
2018-01-30T00:09:18.188Z,11.90
2018-01-30T00:10:18.206Z,12.80
2018-01-30T00:11:18.223Z,14.20
2018-01-30T00:12:18.239Z,12.10
2018-01-30T00:13:18.255Z,16.00
2018-01-30T00:14:18.273Z,12.60
2018-01-30T00:15:18.290Z,14.60
2018-01-30T00:16:18.307Z,11.70
2018-01-30T00:17:18.323Z,12.00
2018-01-30T00:18:18.340Z,12.50
2018-01-30T00:19:18.357Z,9.20
2018-01-30T00:20:18.375Z,10.80
2018-01-30T00:21:18.390Z,14.40
2018-01-30T00:22:18.559Z,11.80
2018-01-30T00:23:18.425Z,12.70
2018-01-30T00:24:18.442Z,11.20
2018-01-30T00:25:18.460Z,30.20
2018-01-30T00:26:18.480Z,10.90
2018-01-30T00:27:18.492Z,14.60
2018-01-30T00:28:18.510Z,10.90
2018-01-30T00:29:18.526Z,13.90
2018-01-30T00:30:18.542Z,17.00
2018-01-30T00:31:18.563Z,10.80
2018-01-30T00:32:18.577Z,17.80
2018-01-30T00:33:18.594Z,14.00
2018-01-30T00:34:18.616Z,19.40
2018-01-30T00:35:18.628Z,11.90
2018-01-30T00:36:18.645Z,12.10
2018-01-30T00:37:18.662Z,19.70
2018-01-30T00:38:18.679Z,16.50
2018-01-30T00:39:18.696Z,15.00
2018-01-30T00:40:18.713Z,9.10
2018-01-30T00:41:18.729Z,17.80
2018-01-30T00:42:18.746Z,13.60
2018-01-30T00:43:18.763Z,16.40
2018-01-30T00:44:18.781Z,13.30
2018-01-30T00:45:18.796Z,11.50
2018-01-30T00:46:18.964Z,14.10
2018-01-30T00:47:18.830Z,17.80
2018-01-30T00:48:18.847Z,15.50
2018-01-30T00:49:18.864Z,13.30
2018-01-30T00:50:18.881Z,10.80
2018-01-30T00:51:18.899Z,12.80
2018-01-30T00:52:18.915Z,13.90
2018-01-30T00:53:18.932Z,19.80
2018-01-30T00:54:18.949Z,14.60
2018-01-30T00:55:18.966Z,13.50
2018-01-30T00:56:18.983Z,10.60
2018-01-30T00:57:18.999Z,14.60
2018-01-30T00:58:19.016Z,15.60
2018-01-30T00:59:19.033Z,12.00
2018-01-30T01:00:19.050Z,14.60
2018-01-30T01:01:19.068Z,15.60
2018-01-30T01:02:19.084Z,14.40
2018-01-30T01:03:19.102Z,15.10
2018-01-30T01:04:19.117Z,13.40
2018-01-30T01:05:19.133Z,13.20
2018-01-30T01:06:19.149Z,12.60
2018-01-30T01:07:19.171Z,12.80
2018-01-30T01:08:19.183Z,16.80
2018-01-30T01:09:19.200Z,15.90
2018-01-30T01:10:19.217Z,17.50
2018-01-30T01:11:19.235Z,12.70
2018-01-30T01:12:19.265Z,16.30
2018-01-30T01:13:19.266Z,15.30
2018-01-30T01:14:19.283Z,14.70
2018-01-30T01:15:19.300Z,15.20
2018-01-30T01:16:19.317Z,16.80
2018-01-30T01:17:19.333Z,16.40
2018-01-30T01:18:19.349Z,14.40
2018-01-30T01:19:19.366Z,15.90
2018-01-30T01:20:19.383Z,13.00
2018-01-30T01:21:19.398Z,17.90
2018-01-30T01:22:19.415Z,17.90
2018-01-30T01:23:19.432Z,12.50
2018-01-30T01:24:19.449Z,13.10
2018-01-30T01:25:19.465Z,16.60
2018-01-30T01:26:19.482Z,14.10
2018-01-30T01:27:19.499Z,15.60
2018-01-30T01:28:19.516Z,15.70
2018-01-30T01:29:19.531Z,11.70
2018-01-30T01:30:19.548Z,12.80
2018-01-30T01:31:19.565Z,12.00
2018-01-30T01:32:19.582Z,17.40
2018-01-30T01:33:19.598Z,16.50
2018-01-30T01:34:19.617Z,13.40
2018-01-30T01:35:19.631Z,15.70
2018-01-30T01:36:19.648Z,18.60
2018-01-30T01:37:19.664Z,13.80
2018-01-30T01:38:19.687Z,18.80
2018-01-30T01:39:19.697Z,16.30
2018-01-30T01:40:19.714Z,19.00
2018-01-30T01:41:19.734Z,19.60
2018-01-30T01:42:19.747Z,17.00
2018-01-30T01:43:19.764Z,18.60
2018-01-30T01:44:19.781Z,14.30
2018-01-30T01:45:19.796Z,19.10
2018-01-30T01:46:19.813Z,13.10
2018-01-30T01:47:19.831Z,15.80
2018-01-30T01:48:19.846Z,15.90
2018-01-30T01:49:19.862Z,13.10
2018-01-30T01:50:19.878Z,15.60
2018-01-30T01:51:19.896Z,13.40
2018-01-30T01:52:19.912Z,15.00
2018-01-30T01:53:19.928Z,12.90
2018-01-30T01:54:19.945Z,16.90
2018-01-30T01:55:19.962Z,12.20
2018-01-30T01:56:19.979Z,13.90
2018-01-30T01:57:19.994Z,21.00
2018-01-30T01:58:20.011Z,13.00
2018-01-30T01:59:20.028Z,12.50
2018-01-30T02:00:20.045Z,19.60
2018-01-30T02:01:20.060Z,16.40
2018-01-30T02:02:20.077Z,12.10
2018-01-30T02:03:20.093Z,11.50
2018-01-30T02:04:20.110Z,15.60
2018-01-30T02:05:20.126Z,16.10
2018-01-30T02:06:20.142Z,16.00
2018-01-30T02:07:20.159Z,13.70
2018-01-30T02:08:20.176Z,17.00
2018-01-30T02:09:20.192Z,17.50
2018-01-30T02:10:20.209Z,16.70
2018-01-30T02:11:20.225Z,11.60
2018-01-30T02:12:20.241Z,15.00
2018-01-30T02:13:20.257Z,14.30
2018-01-30T02:14:20.275Z,11.80
2018-01-30T02:15:20.291Z,15.10
2018-01-30T02:16:20.307Z,18.50
2018-01-30T02:17:20.324Z,18.10
2018-01-30T02:18:20.340Z,25.10
2018-01-30T02:19:20.457Z,16.40
2018-01-30T02:20:20.377Z,17.90
2018-01-30T02:21:20.389Z,19.70
2018-01-30T02:22:20.406Z,16.50
2018-01-30T02:23:20.422Z,12.40
2018-01-30T02:24:20.439Z,22.20
2018-01-30T02:25:20.455Z,15.30
2018-01-30T02:26:20.471Z,12.20
2018-01-30T02:27:20.488Z,23.20
2018-01-30T02:28:20.505Z,16.60
2018-01-30T02:29:20.521Z,11.90
2018-01-30T02:30:20.537Z,17.40
2018-01-30T02:31:20.554Z,13.20
2018-01-30T02:32:20.572Z,16.90
2018-01-30T02:33:20.586Z,16.40
2018-01-30T02:34:20.602Z,23.70
2018-01-30T02:35:20.619Z,13.70
2018-01-30T02:36:20.636Z,14.80
2018-01-30T02:37:20.651Z,18.60
2018-01-30T02:38:20.667Z,19.70
2018-01-30T02:39:20.684Z,14.60
2018-01-30T02:40:20.701Z,22.70
2018-01-30T02:41:20.716Z,15.70
2018-01-30T02:42:20.733Z,15.40
2018-01-30T02:43:20.749Z,21.60
2018-01-30T02:44:20.766Z,16.10
2018-01-30T02:45:20.781Z,14.20
2018-01-30T02:46:20.798Z,19.40
2018-01-30T02:47:20.813Z,15.90
2018-01-30T02:48:20.829Z,15.40
2018-01-30T02:49:20.846Z,14.50
2018-01-30T02:50:20.867Z,16.70
2018-01-30T02:51:20.879Z,18.40
2018-01-30T02:52:20.894Z,16.50
2018-01-30T02:53:20.910Z,11.60
2018-01-30T02:54:21.080Z,16.60
2018-01-30T02:55:20.943Z,15.80
2018-01-30T02:56:20.959Z,17.60
2018-01-30T02:57:20.975Z,14.20
2018-01-30T02:58:20.991Z,19.90
2018-01-30T02:59:21.025Z,18.10
2018-01-30T03:00:21.024Z,14.90
2018-01-30T03:01:21.039Z,14.10
2018-01-30T03:02:21.055Z,17.40
2018-01-30T03:03:21.072Z,13.30
2018-01-30T03:04:21.239Z,21.40
2018-01-30T03:05:21.109Z,17.10
2018-01-30T03:06:21.119Z,18.70
2018-01-30T03:07:21.135Z,18.50
2018-01-30T03:08:21.152Z,18.20
2018-01-30T03:09:21.172Z,15.10
2018-01-30T03:10:21.183Z,17.70
2018-01-30T03:11:21.201Z,19.50
2018-01-30T03:12:21.216Z,21.60
2018-01-30T03:13:21.231Z,16.90
2018-01-30T03:14:21.398Z,13.70
2018-01-30T03:15:21.264Z,14.10
2018-01-30T03:16:21.280Z,13.70
2018-01-30T03:17:21.296Z,15.30
2018-01-30T03:18:21.311Z,13.10
2018-01-30T03:19:21.329Z,18.90
2018-01-30T03:20:21.344Z,17.00
2018-01-30T03:21:21.359Z,20.00
2018-01-30T03:22:21.413Z,14.60
2018-01-30T03:23:21.392Z,21.70
2018-01-30T03:24:21.408Z,15.80
2018-01-30T03:25:21.423Z,15.10
2018-01-30T03:26:21.439Z,20.10
2018-01-30T03:27:21.457Z,13.10
2018-01-30T03:28:21.472Z,18.50
2018-01-30T03:29:21.487Z,17.70
2018-01-30T03:30:21.504Z,12.90
2018-01-30T03:31:21.520Z,17.10
2018-01-30T03:32:21.535Z,16.20
2018-01-30T03:33:21.556Z,17.30
2018-01-30T03:34:21.570Z,16.20
2018-01-30T03:35:21.585Z,16.60
2018-01-30T03:36:21.599Z,9.90
2018-01-30T03:37:21.614Z,17.40
2018-01-30T03:38:21.631Z,17.90
2018-01-30T03:39:21.647Z,22.10
2018-01-30T03:40:21.663Z,22.90
2018-01-30T03:41:21.679Z,22.70
2018-01-30T03:42:21.694Z,12.70
2018-01-30T03:43:21.710Z,16.30
2018-01-30T03:44:21.728Z,17.60
2018-01-30T03:45:21.742Z,15.40
2018-01-30T03:46:21.757Z,18.10
2018-01-30T03:47:21.773Z,18.70
2018-01-30T03:48:21.790Z,20.80
2018-01-30T03:49:21.803Z,14.50
2018-01-30T03:50:21.820Z,15.70
2018-01-30T03:51:21.837Z,21.40
2018-01-30T03:52:21.853Z,19.00
2018-01-30T03:53:21.868Z,17.60
2018-01-30T03:54:21.883Z,20.90
2018-01-30T03:55:21.899Z,17.40
2018-01-30T03:56:21.915Z,16.40
2018-01-30T03:57:21.931Z,18.60
2018-01-30T03:58:21.947Z,22.30
2018-01-30T03:59:21.962Z,16.50
2018-01-30T04:00:21.979Z,17.90
2018-01-30T04:01:21.994Z,15.60
2018-01-30T04:02:22.010Z,18.10
2018-01-30T04:03:22.027Z,18.80
2018-01-30T04:04:22.043Z,18.10
2018-01-30T04:05:22.088Z,15.30
2018-01-30T04:06:22.073Z,19.30
2018-01-30T04:07:22.089Z,17.80
2018-01-30T04:08:22.106Z,21.60
2018-01-30T04:09:22.119Z,15.10
2018-01-30T04:10:22.136Z,14.70
2018-01-30T04:11:22.151Z,21.10
2018-01-30T04:12:22.168Z,17.50
2018-01-30T04:13:22.183Z,20.40
2018-01-30T04:14:22.199Z,14.80
2018-01-30T04:15:22.215Z,16.80
2018-01-30T04:16:22.231Z,16.00
2018-01-30T04:17:22.250Z,14.30
2018-01-30T04:18:22.262Z,14.90
2018-01-30T04:19:22.277Z,21.60
2018-01-30T04:20:22.294Z,25.60
2018-01-30T04:21:22.311Z,13.80
2018-01-30T04:22:22.324Z,18.60
2018-01-30T04:23:22.491Z,15.20
2018-01-30T04:24:22.356Z,19.70
2018-01-30T04:25:22.372Z,15.00
2018-01-30T04:26:22.387Z,21.20
2018-01-30T04:27:22.404Z,23.40
2018-01-30T04:28:22.420Z,17.00
2018-01-30T04:29:22.434Z,15.20
2018-01-30T04:30:22.451Z,19.30
2018-01-30T04:31:22.467Z,18.40
2018-01-30T04:32:22.482Z,25.30
2018-01-30T04:33:22.498Z,23.00
2018-01-30T04:34:22.513Z,21.70
2018-01-30T04:35:22.528Z,14.30
2018-01-30T04:36:22.545Z,21.80
2018-01-30T04:37:22.560Z,17.40
2018-01-30T04:38:22.576Z,16.40
2018-01-30T04:39:22.592Z,18.40
2018-01-30T04:40:22.608Z,17.80
2018-01-30T04:41:22.622Z,22.60
2018-01-30T04:42:22.638Z,18.20
2018-01-30T04:43:22.654Z,20.30
2018-01-30T04:44:22.670Z,17.50
2018-01-30T04:45:22.688Z,20.50
2018-01-30T04:46:22.701Z,16.80
2018-01-30T04:47:22.717Z,19.10
2018-01-30T04:48:22.732Z,23.60
2018-01-30T04:49:22.748Z,18.80
2018-01-30T04:50:22.764Z,23.10
2018-01-30T04:51:22.779Z,18.40
2018-01-30T04:52:22.795Z,22.10
2018-01-30T04:53:22.810Z,24.30
2018-01-30T04:54:22.826Z,19.60
2018-01-30T04:55:22.842Z,19.50
2018-01-30T04:56:22.857Z,21.50
2018-01-30T04:57:22.872Z,24.20
2018-01-30T04:58:22.889Z,24.90
2018-01-30T04:59:22.904Z,17.80
2018-01-30T05:00:22.920Z,16.20
2018-01-30T05:01:22.936Z,22.80
2018-01-30T05:02:22.952Z,24.30
2018-01-30T05:03:22.967Z,24.10
2018-01-30T05:04:22.982Z,18.60
2018-01-30T05:05:22.999Z,25.50
2018-01-30T05:06:23.064Z,22.30
2018-01-30T05:07:23.029Z,28.10
2018-01-30T05:08:23.045Z,18.60
2018-01-30T05:09:23.060Z,18.60
2018-01-30T05:10:23.076Z,24.10
2018-01-30T05:11:23.092Z,22.90
2018-01-30T05:12:23.108Z,18.60
2018-01-30T05:13:23.123Z,22.00
2018-01-30T05:14:23.139Z,19.20
2018-01-30T05:15:23.154Z,24.10
2018-01-30T05:16:23.171Z,39.20
2018-01-30T05:17:23.187Z,24.90
2018-01-30T05:18:23.201Z,23.00
2018-01-30T05:19:23.218Z,25.80
2018-01-30T05:20:23.246Z,23.00
2018-01-30T05:21:23.248Z,21.80
2018-01-30T05:22:23.264Z,22.90
2018-01-30T05:23:23.280Z,20.00
2018-01-30T05:24:23.296Z,21.20
2018-01-30T05:25:23.311Z,16.20
2018-01-30T05:26:23.326Z,21.10
2018-01-30T05:27:23.342Z,16.60
2018-01-30T05:28:23.359Z,25.40
2018-01-30T05:29:23.372Z,22.50
2018-01-30T05:30:23.389Z,19.10
2018-01-30T05:31:23.406Z,25.50
2018-01-30T05:32:23.421Z,22.90
2018-01-30T05:33:23.437Z,20.50
2018-01-30T05:34:23.452Z,28.20
2018-01-30T05:35:23.469Z,27.70
2018-01-30T05:36:23.484Z,20.60
2018-01-30T05:37:23.500Z,18.90
2018-01-30T05:38:23.515Z,21.60
2018-01-30T05:39:23.531Z,28.80
2018-01-30T05:40:23.547Z,20.90
2018-01-30T05:41:23.562Z,21.00
2018-01-30T05:42:23.584Z,18.70
2018-01-30T05:43:23.594Z,24.40
2018-01-30T05:44:23.613Z,26.00
2018-01-30T05:45:23.625Z,20.30
2018-01-30T05:46:23.675Z,30.20
2018-01-30T05:47:23.658Z,21.80
2018-01-30T05:48:23.673Z,23.80
2018-01-30T05:49:23.689Z,22.50
2018-01-30T05:50:23.705Z,25.70
2018-01-30T05:51:23.722Z,21.50
2018-01-30T05:52:23.736Z,24.70
2018-01-30T05:53:23.755Z,23.90
2018-01-30T05:54:23.768Z,28.90
2018-01-30T05:55:23.784Z,26.30
2018-01-30T05:56:23.800Z,23.60
2018-01-30T05:57:23.815Z,25.80
2018-01-30T05:58:23.829Z,36.70
2018-01-30T05:59:23.847Z,24.30
2018-01-30T06:00:23.863Z,24.30
2018-01-30T06:01:23.879Z,28.60
2018-01-30T06:02:23.894Z,30.50
2018-01-30T06:03:23.911Z,26.30
2018-01-30T06:04:23.926Z,20.80
2018-01-30T06:05:23.941Z,29.70
2018-01-30T06:06:23.957Z,30.00
2018-01-30T06:07:23.973Z,27.20
2018-01-30T06:08:23.989Z,30.80
2018-01-30T06:09:24.004Z,26.80
2018-01-30T06:10:24.020Z,27.50
2018-01-30T06:11:24.035Z,26.40
2018-01-30T06:12:24.051Z,31.90
2018-01-30T06:13:24.067Z,24.30
2018-01-30T06:14:24.083Z,30.30
2018-01-30T06:15:24.099Z,28.50
2018-01-30T06:16:24.115Z,32.30
2018-01-30T06:17:24.129Z,28.00
2018-01-30T06:18:24.145Z,27.60
2018-01-30T06:19:24.161Z,26.80
2018-01-30T06:20:24.177Z,31.90
2018-01-30T06:21:24.192Z,33.20
2018-01-30T06:22:24.208Z,28.60
2018-01-30T06:23:24.224Z,27.60
2018-01-30T06:24:24.239Z,28.90
2018-01-30T06:25:24.255Z,29.80
2018-01-30T06:26:24.271Z,30.90
2018-01-30T06:27:24.287Z,30.60
2018-01-30T06:28:24.348Z,28.90
2018-01-30T06:29:24.317Z,33.60
2018-01-30T06:30:24.384Z,34.20
2018-01-30T06:31:24.349Z,31.40
2018-01-30T06:32:24.366Z,26.30
2018-01-30T06:33:24.385Z,31.80
2018-01-30T06:34:24.396Z,27.40
2018-01-30T06:35:24.412Z,27.20
2018-01-30T06:36:24.427Z,31.30
2018-01-30T06:37:24.443Z,30.50
2018-01-30T06:38:24.457Z,33.10
2018-01-30T06:39:24.475Z,27.60
2018-01-30T06:40:24.489Z,31.60
2018-01-30T06:41:24.505Z,27.60
2018-01-30T06:42:24.557Z,31.40
2018-01-30T06:43:24.537Z,32.90
2018-01-30T06:44:24.553Z,32.50
2018-01-30T06:45:24.580Z,28.30
2018-01-30T06:46:24.583Z,33.40
2018-01-30T06:47:24.601Z,29.40
2018-01-30T06:48:24.616Z,28.00
2018-01-30T06:49:24.630Z,31.20
2018-01-30T06:50:24.645Z,31.40
2018-01-30T06:51:24.661Z,25.40
2018-01-30T06:52:24.677Z,28.80
2018-01-30T06:53:24.693Z,33.50
2018-01-30T06:54:24.707Z,38.50
2018-01-30T06:55:24.724Z,32.40
2018-01-30T06:56:24.739Z,34.00
2018-01-30T06:57:24.754Z,33.60
2018-01-30T06:58:24.769Z,33.50
2018-01-30T06:59:24.936Z,29.70
2018-01-30T07:00:24.802Z,30.40
2018-01-30T07:01:24.817Z,29.10
2018-01-30T07:02:24.832Z,29.80
2018-01-30T07:03:24.854Z,32.00
2018-01-30T07:04:24.864Z,36.40
2018-01-30T07:05:24.879Z,38.90
2018-01-30T07:06:24.941Z,34.00
2018-01-30T07:07:24.911Z,35.90
2018-01-30T07:08:24.928Z,38.50
2018-01-30T07:09:24.941Z,31.90
2018-01-30T07:10:24.957Z,35.50
2018-01-30T07:11:24.972Z,29.20
2018-01-30T07:12:24.990Z,36.20
2018-01-30T07:13:25.007Z,34.90
2018-01-30T07:14:25.019Z,32.10
2018-01-30T07:15:25.036Z,39.50
2018-01-30T07:16:25.051Z,37.40
2018-01-30T07:17:25.067Z,33.00
2018-01-30T07:18:25.082Z,36.10
2018-01-30T07:19:25.102Z,36.00
2018-01-30T07:20:25.115Z,37.80
2018-01-30T07:21:25.129Z,36.90
2018-01-30T07:22:25.145Z,34.50
2018-01-30T07:23:25.160Z,37.30
2018-01-30T07:24:25.176Z,39.70
2018-01-30T07:25:25.192Z,39.10
2018-01-30T07:26:25.207Z,39.40
2018-01-30T07:27:25.224Z,34.70
2018-01-30T07:28:25.239Z,37.90
2018-01-30T07:29:25.256Z,43.00
2018-01-30T07:30:25.270Z,36.40
2018-01-30T07:31:25.286Z,40.80
2018-01-30T07:32:25.301Z,35.30
2018-01-30T07:33:25.317Z,39.90
2018-01-30T07:34:25.332Z,38.90
2018-01-30T07:35:25.348Z,32.10
2018-01-30T07:36:25.370Z,39.50
2018-01-30T07:37:25.379Z,37.50
2018-01-30T07:38:25.396Z,42.90
2018-01-30T07:39:25.411Z,42.70
2018-01-30T07:40:25.426Z,36.90
2018-01-30T07:41:25.442Z,40.90
2018-01-30T07:42:25.457Z,37.90
2018-01-30T07:43:25.484Z,40.20
2018-01-30T07:44:25.495Z,38.80
2018-01-30T07:45:25.504Z,39.60
2018-01-30T07:46:25.520Z,39.70
2018-01-30T07:47:25.537Z,41.20
2018-01-30T07:48:25.552Z,36.40
2018-01-30T07:49:25.567Z,42.50
2018-01-30T07:50:25.683Z,40.70
2018-01-30T07:51:25.599Z,36.60
2018-01-30T07:52:25.615Z,47.00
2018-01-30T07:53:25.629Z,42.70
2018-01-30T07:54:25.646Z,39.60
2018-01-30T07:55:25.663Z,51.70
2018-01-30T07:56:25.678Z,45.00
2018-01-30T07:57:25.692Z,44.10
2018-01-30T07:58:25.709Z,44.50
2018-01-30T07:59:25.725Z,44.90
2018-01-30T08:00:25.740Z,36.50
2018-01-30T08:01:25.755Z,38.70
2018-01-30T08:02:25.772Z,37.00
2018-01-30T08:03:25.788Z,49.30
2018-01-30T08:04:25.804Z,41.70
2018-01-30T08:05:25.819Z,46.40
2018-01-30T08:06:25.835Z,40.20
2018-01-30T08:07:25.851Z,44.30
2018-01-30T08:08:25.867Z,45.90
2018-01-30T08:09:25.882Z,43.40
2018-01-30T08:10:25.899Z,48.20
2018-01-30T08:11:25.915Z,42.80
2018-01-30T08:12:25.931Z,41.40
2018-01-30T08:13:25.946Z,39.40
2018-01-30T08:14:25.962Z,46.40
2018-01-30T08:15:25.978Z,50.00
2018-01-30T08:16:25.994Z,47.10
2018-01-30T08:17:26.010Z,40.20
2018-01-30T08:18:26.026Z,50.40
2018-01-30T08:19:26.192Z,47.40
2018-01-30T08:20:26.059Z,46.20
2018-01-30T08:21:26.074Z,48.10
2018-01-30T08:22:26.090Z,52.00
2018-01-30T08:23:26.107Z,57.80
2018-01-30T08:24:26.123Z,51.70
2018-01-30T08:25:26.138Z,42.40
2018-01-30T08:26:26.156Z,45.80
2018-01-30T08:27:26.171Z,43.00
2018-01-30T08:28:26.202Z,52.70
2018-01-30T08:29:26.202Z,46.80
2018-01-30T08:30:26.220Z,44.50
2018-01-30T08:31:26.235Z,40.80
2018-01-30T08:32:26.251Z,54.00
2018-01-30T08:33:26.268Z,53.90
2018-01-30T08:34:26.283Z,48.10
2018-01-30T08:35:26.300Z,49.10
2018-01-30T08:36:26.315Z,47.90
2018-01-30T08:37:26.338Z,42.10
2018-01-30T08:38:26.348Z,53.10
2018-01-30T08:39:26.365Z,44.80
2018-01-30T08:40:26.412Z,53.20
2018-01-30T08:41:26.396Z,43.60
2018-01-30T08:42:26.413Z,42.40
2018-01-30T08:43:26.429Z,40.40
2018-01-30T08:44:26.445Z,39.40
2018-01-30T08:45:26.461Z,45.20
2018-01-30T08:46:26.480Z,40.40
2018-01-30T08:47:26.566Z,39.60
2018-01-30T08:48:26.512Z,41.60
2018-01-30T08:49:26.527Z,41.50
2018-01-30T08:50:26.544Z,46.30
2018-01-30T08:51:26.565Z,45.70
2018-01-30T08:52:26.577Z,39.60
2018-01-30T08:53:26.593Z,43.50
2018-01-30T08:54:26.610Z,41.00
2018-01-30T08:55:26.626Z,34.00
2018-01-30T08:56:26.647Z,40.90
2018-01-30T08:57:26.671Z,38.90
2018-01-30T08:58:26.676Z,44.00
2018-01-30T08:59:26.693Z,40.10
2018-01-30T09:00:26.709Z,36.50
2018-01-30T09:01:26.725Z,36.70
2018-01-30T09:02:26.752Z,44.90
2018-01-30T09:03:26.764Z,46.70
2018-01-30T09:04:26.787Z,43.80
2018-01-30T09:05:26.796Z,39.40
2018-01-30T09:06:26.822Z,42.70
2018-01-30T09:07:26.825Z,41.90
2018-01-30T09:08:26.841Z,40.10
2018-01-30T09:09:26.869Z,44.40
2018-01-30T09:10:26.875Z,47.80
2018-01-30T09:11:26.891Z,44.30
2018-01-30T09:12:26.909Z,46.50
2018-01-30T09:13:26.952Z,44.00
2018-01-30T09:14:26.940Z,45.60
2018-01-30T09:15:26.973Z,39.20
2018-01-30T09:16:26.974Z,47.40
2018-01-30T09:17:26.990Z,44.60
2018-01-30T09:18:27.007Z,45.50
2018-01-30T09:19:27.024Z,45.80
2018-01-30T09:20:27.042Z,43.90
2018-01-30T09:21:27.065Z,52.30
2018-01-30T09:22:27.073Z,42.30
2018-01-30T09:23:27.090Z,51.90
2018-01-30T09:24:27.108Z,43.20
2018-01-30T09:25:27.123Z,39.20
2018-01-30T09:26:27.139Z,38.40
2018-01-30T09:27:27.156Z,43.80
2018-01-30T09:28:27.180Z,41.10
2018-01-30T09:29:27.189Z,47.80
2018-01-30T09:30:27.206Z,42.10
2018-01-30T09:31:27.222Z,37.10
2018-01-30T09:32:27.241Z,38.20
2018-01-30T09:33:27.292Z,45.80
2018-01-30T09:34:27.273Z,40.60
2018-01-30T09:35:27.289Z,43.60
2018-01-30T09:36:27.305Z,38.70
2018-01-30T09:37:27.321Z,40.20
2018-01-30T09:38:27.339Z,41.10
2018-01-30T09:39:27.355Z,41.50
2018-01-30T09:40:27.372Z,36.50
2018-01-30T09:41:27.388Z,41.10
2018-01-30T09:42:27.405Z,47.00
2018-01-30T09:43:27.457Z,45.20
2018-01-30T09:44:27.455Z,38.10
2018-01-30T09:45:27.455Z,40.20
2018-01-30T09:46:27.472Z,42.30
2018-01-30T09:47:27.489Z,37.90
2018-01-30T09:48:27.506Z,35.40
2018-01-30T09:49:27.544Z,44.50
2018-01-30T09:50:27.562Z,46.00
2018-01-30T09:51:27.555Z,42.20
2018-01-30T09:52:27.578Z,46.70
2018-01-30T09:53:27.589Z,41.90
2018-01-30T09:54:27.606Z,35.90
2018-01-30T09:55:27.623Z,43.30
2018-01-30T09:56:27.642Z,42.20
2018-01-30T09:57:27.656Z,42.90
2018-01-30T09:58:27.673Z,43.50
2018-01-30T09:59:27.693Z,36.70
2018-01-30T10:00:27.709Z,39.30
2018-01-30T10:01:27.734Z,44.50
2018-01-30T10:02:27.941Z,51.30
2018-01-30T10:03:27.793Z,45.10
2018-01-30T10:04:27.776Z,46.00
2018-01-30T10:05:27.792Z,48.20
2018-01-30T10:06:27.809Z,42.20
2018-01-30T10:07:27.826Z,51.20
2018-01-30T10:08:27.845Z,39.80
2018-01-30T10:09:27.860Z,47.50
2018-01-30T10:10:27.877Z,69.50
2018-01-30T10:11:27.894Z,46.40
2018-01-30T10:12:27.912Z,39.70
2018-01-30T10:13:27.928Z,37.40
2018-01-30T10:14:27.945Z,42.40
2018-01-30T10:15:27.963Z,44.60
2018-01-30T10:16:27.980Z,50.70
2018-01-30T10:17:27.996Z,53.30
2018-01-30T10:18:28.013Z,48.90
2018-01-30T10:19:28.036Z,49.80
2018-01-30T10:20:28.055Z,45.40
2018-01-30T10:21:28.079Z,59.10
2018-01-30T10:22:28.083Z,66.00
2018-01-30T10:23:28.100Z,56.30
2018-01-30T10:24:28.118Z,49.90
2018-01-30T10:25:28.134Z,48.50
2018-01-30T10:26:28.152Z,44.20
2018-01-30T10:27:28.170Z,47.00
2018-01-30T10:28:28.187Z,48.20
2018-01-30T10:29:28.204Z,36.80
2018-01-30T10:30:28.222Z,47.40
2018-01-30T10:31:28.239Z,36.30
2018-01-30T10:32:28.335Z,35.70
2018-01-30T10:33:28.273Z,37.10
2018-01-30T10:34:28.291Z,50.30
2018-01-30T10:35:28.309Z,56.90
2018-01-30T10:36:28.326Z,48.30
2018-01-30T10:37:28.392Z,41.10
2018-01-30T10:38:28.361Z,37.00
2018-01-30T10:39:28.379Z,38.70
2018-01-30T10:40:28.396Z,39.30
2018-01-30T10:41:28.414Z,36.70
2018-01-30T10:42:28.431Z,41.60
2018-01-30T10:43:28.448Z,34.30
2018-01-30T10:44:28.468Z,35.50
2018-01-30T10:45:28.632Z,49.20
2018-01-30T10:46:28.500Z,54.80
2018-01-30T10:47:28.518Z,45.60
2018-01-30T10:48:28.536Z,46.30
2018-01-30T10:49:28.552Z,42.60
2018-01-30T10:50:28.606Z,43.30
2018-01-30T10:51:28.588Z,43.00
2018-01-30T10:52:28.605Z,41.10
2018-01-30T10:53:28.625Z,48.10
2018-01-30T10:54:28.641Z,53.60
2018-01-30T10:55:28.658Z,37.10
2018-01-30T10:56:28.701Z,38.00
2018-01-30T10:57:28.692Z,46.20
2018-01-30T10:58:28.710Z,37.80
2018-01-30T10:59:28.727Z,33.60
2018-01-30T11:00:28.804Z,36.20
2018-01-30T11:01:28.765Z,39.10
2018-01-30T11:02:28.827Z,45.10
2018-01-30T11:03:28.799Z,43.20
2018-01-30T11:04:28.815Z,36.00
2018-01-30T11:05:28.835Z,39.10
2018-01-30T11:06:28.861Z,42.30
2018-01-30T11:07:28.871Z,42.20
2018-01-30T11:08:28.886Z,37.50
2018-01-30T11:09:28.905Z,35.20
2018-01-30T11:10:28.921Z,39.50
2018-01-30T11:11:28.989Z,34.30
2018-01-30T11:12:28.956Z,40.10
2018-01-30T11:13:28.973Z,33.80
2018-01-30T11:14:28.990Z,33.70
2018-01-30T11:15:29.010Z,44.20
2018-01-30T11:16:29.028Z,45.30
2018-01-30T11:17:29.043Z,44.30
2018-01-30T11:18:29.061Z,38.90
2018-01-30T11:19:29.084Z,38.80
2018-01-30T11:20:29.097Z,44.60
2018-01-30T11:21:29.114Z,39.80
2018-01-30T11:22:29.282Z,37.20
2018-01-30T11:23:29.149Z,46.00
2018-01-30T11:24:29.167Z,42.10
2018-01-30T11:25:29.184Z,39.90
2018-01-30T11:26:29.201Z,41.60
2018-01-30T11:27:29.218Z,39.90
2018-01-30T11:28:29.237Z,35.40
2018-01-30T11:29:29.253Z,35.50
2018-01-30T11:30:29.271Z,33.10
2018-01-30T11:31:29.295Z,36.20
2018-01-30T11:32:29.319Z,33.60
2018-01-30T11:33:29.323Z,35.80
2018-01-30T11:34:29.343Z,31.80
2018-01-30T11:35:29.358Z,34.50
2018-01-30T11:36:29.376Z,39.90
2018-01-30T11:37:29.395Z,36.80
2018-01-30T11:38:29.410Z,30.90
2018-01-30T11:39:29.428Z,33.20
2018-01-30T11:40:29.446Z,38.90
2018-01-30T11:41:29.468Z,45.50
2018-01-30T11:42:29.487Z,43.50
2018-01-30T11:43:29.506Z,38.00
2018-01-30T11:44:29.516Z,34.10
2018-01-30T11:45:29.533Z,34.20
2018-01-30T11:46:29.550Z,36.60
2018-01-30T11:47:29.720Z,33.90
2018-01-30T11:48:29.586Z,38.80
2018-01-30T11:49:29.639Z,32.00
2018-01-30T11:50:29.621Z,29.20
2018-01-30T11:51:29.639Z,30.00
2018-01-30T11:52:29.663Z,26.70
2018-01-30T11:53:29.680Z,39.10
2018-01-30T11:54:29.692Z,44.00
2018-01-30T11:55:29.734Z,53.10
2018-01-30T11:56:29.727Z,41.80
2018-01-30T11:57:29.743Z,36.20
2018-01-30T11:58:29.761Z,46.70
2018-01-30T11:59:29.779Z,38.90
2018-01-30T12:00:29.798Z,34.10
2018-01-30T12:01:29.814Z,40.40
2018-01-30T12:02:29.831Z,30.40
2018-01-30T12:03:29.849Z,39.50
2018-01-30T12:04:29.867Z,38.60
2018-01-30T12:05:29.884Z,27.00
2018-01-30T12:06:29.902Z,39.50
2018-01-30T12:07:29.938Z,32.80
2018-01-30T12:08:29.938Z,31.90
2018-01-30T12:09:29.976Z,31.00
2018-01-30T12:10:29.972Z,35.40
2018-01-30T12:11:29.990Z,36.60
2018-01-30T12:12:30.008Z,33.50
2018-01-30T12:13:30.024Z,33.20
2018-01-30T12:14:30.042Z,37.60
2018-01-30T12:15:30.060Z,34.80
2018-01-30T12:16:30.083Z,35.80
2018-01-30T12:17:30.095Z,31.60
2018-01-30T12:18:30.113Z,39.50
2018-01-30T12:19:30.130Z,44.90
2018-01-30T12:20:30.148Z,35.70
2018-01-30T12:21:30.165Z,55.60
2018-01-30T12:22:30.183Z,44.80
2018-01-30T12:23:30.200Z,40.70
2018-01-30T12:24:30.218Z,30.80
2018-01-30T12:25:30.238Z,30.10
2018-01-30T12:26:30.264Z,34.20
2018-01-30T12:27:30.271Z,31.30
2018-01-30T12:28:30.288Z,50.10
2018-01-30T12:29:30.304Z,48.00
2018-01-30T12:30:30.323Z,35.90
2018-01-30T12:31:30.341Z,39.00
2018-01-30T12:32:30.358Z,38.60
2018-01-30T12:33:30.376Z,35.70
2018-01-30T12:34:30.404Z,32.70
2018-01-30T12:35:30.409Z,36.80
2018-01-30T12:36:30.429Z,32.20
2018-01-30T12:37:30.443Z,29.20
2018-01-30T12:38:30.462Z,31.80
2018-01-30T12:39:30.479Z,24.00
2018-01-30T12:40:30.497Z,33.20
2018-01-30T12:41:30.526Z,23.80
2018-01-30T12:42:30.531Z,26.20
2018-01-30T12:43:30.550Z,33.40
2018-01-30T12:44:30.566Z,47.60
2018-01-30T12:45:30.784Z,35.30
2018-01-30T12:46:30.601Z,30.40
2018-01-30T12:47:30.618Z,26.40
2018-01-30T12:48:30.636Z,44.60
2018-01-30T12:49:30.709Z,35.60
2018-01-30T12:50:30.670Z,27.40
2018-01-30T12:51:30.689Z,26.80
2018-01-30T12:52:30.706Z,35.60